createdAt,value
2022-08-14T00:01:33.039Z,18.10
2022-08-14T00:04:35.970Z,18.50
2022-08-14T00:07:07.141Z,16.70
2022-08-14T00:10:02.518Z,15.80
2022-08-14T00:12:57.211Z,14.80
2022-08-14T00:15:44.139Z,15.70
2022-08-14T00:19:05.535Z,15.10
2022-08-14T00:21:22.427Z,18.90
2022-08-14T00:24:07.941Z,14.40
2022-08-14T00:26:48.772Z,15.40
2022-08-14T00:29:30.712Z,14.00
2022-08-14T00:32:52.421Z,14.90
2022-08-14T00:35:10.100Z,16.70
2022-08-14T00:37:50.639Z,16.40
2022-08-14T00:40:35.511Z,16.90
2022-08-14T00:43:12.810Z,16.60
2022-08-14T00:45:52.282Z,15.70
2022-08-14T00:48:34.881Z,16.10
2022-08-14T00:51:14.630Z,16.60
2022-08-14T00:53:51.490Z,17.30
2022-08-14T00:56:31.323Z,15.90
2022-08-14T00:59:09.528Z,18.80
2022-08-14T01:01:49.283Z,15.90
2022-08-14T01:04:50.844Z,15.80
2022-08-14T01:07:24.846Z,20.00
2022-08-14T01:10:07.810Z,14.20
2022-08-14T01:12:44.428Z,16.90
2022-08-14T01:15:31.776Z,16.60
2022-08-14T01:18:38.745Z,14.40
2022-08-14T01:21:17.122Z,16.60
2022-08-14T01:23:55.621Z,16.20
2022-08-14T01:26:35.162Z,16.90
2022-08-14T01:29:16.249Z,19.00
2022-08-14T01:32:13.025Z,17.20
2022-08-14T01:35:20.041Z,16.80
2022-08-14T01:37:56.428Z,16.80
2022-08-14T01:40:41.107Z,18.90
2022-08-14T01:43:22.176Z,17.80
2022-08-14T01:46:06.503Z,20.30
2022-08-14T01:48:44.396Z,18.40
2022-08-14T01:51:25.011Z,18.70
2022-08-14T01:54:05.792Z,17.30
2022-08-14T01:56:44.581Z,18.40
2022-08-14T01:59:37.600Z,17.60
2022-08-14T02:02:19.966Z,18.60
2022-08-14T02:04:57.809Z,19.60
2022-08-14T02:07:53.238Z,19.90
2022-08-14T02:10:29.976Z,18.80
2022-08-14T02:13:08.537Z,19.10
2022-08-14T02:15:44.481Z,18.80
2022-08-14T02:18:20.786Z,18.60
2022-08-14T02:20:59.250Z,17.60
2022-08-14T02:23:36.639Z,21.70
2022-08-14T02:26:29.946Z,20.10
2022-08-14T02:29:11.822Z,18.60
2022-08-14T02:31:51.459Z,20.70
2022-08-14T02:34:32.201Z,19.50
2022-08-14T02:37:15.992Z,21.10
2022-08-14T02:39:52.244Z,20.60
2022-08-14T02:42:37.231Z,18.00
2022-08-14T02:45:15.608Z,21.30
2022-08-14T02:47:57.402Z,20.80
2022-08-14T02:50:34.243Z,18.40
2022-08-14T02:53:12.122Z,21.10
2022-08-14T02:55:51.539Z,21.20
2022-08-14T02:58:31.145Z,19.90
2022-08-14T03:01:08.846Z,22.80
2022-08-14T03:03:46.206Z,22.20
2022-08-14T03:06:48.888Z,20.70
2022-08-14T03:09:21.565Z,20.00
2022-08-14T03:11:58.082Z,23.70
2022-08-14T03:14:37.922Z,18.50
2022-08-14T03:17:16.055Z,21.50
2022-08-14T03:19:53.648Z,21.20
2022-08-14T03:22:29.978Z,24.70
2022-08-14T03:25:07.422Z,21.30
2022-08-14T03:27:48.188Z,21.40
2022-08-14T03:30:38.797Z,21.80
2022-08-14T03:33:17.483Z,20.60
2022-08-14T03:36:05.567Z,22.00
2022-08-14T03:39:12.651Z,19.00
2022-08-14T03:41:55.716Z,20.80
2022-08-14T03:45:25.438Z,22.70
2022-08-14T03:47:46.131Z,23.00
2022-08-14T03:50:30.701Z,25.20
2022-08-14T03:53:08.128Z,23.50
2022-08-14T03:55:45.419Z,22.00
2022-08-14T03:58:23.636Z,24.40
2022-08-14T04:01:11.660Z,25.00
2022-08-14T04:03:48.173Z,22.30
2022-08-14T04:06:31.590Z,23.30
2022-08-14T04:09:09.262Z,23.60
2022-08-14T04:11:45.639Z,23.90
2022-08-14T04:14:21.811Z,25.50
2022-08-14T04:16:59.728Z,25.20
2022-08-14T04:19:38.303Z,22.90
2022-08-14T04:22:15.069Z,21.70
2022-08-14T04:24:53.267Z,23.30
2022-08-14T04:27:30.599Z,25.10
2022-08-14T04:30:32.851Z,26.60
2022-08-14T04:33:17.143Z,25.90
2022-08-14T04:35:57.174Z,26.70
2022-08-14T04:38:51.148Z,22.90
2022-08-14T04:41:47.450Z,22.80
2022-08-14T04:44:35.974Z,21.70
2022-08-14T04:47:30.938Z,20.60
2022-08-14T04:50:10.535Z,20.80
2022-08-14T04:52:53.989Z,19.40
2022-08-14T04:55:33.774Z,17.00
2022-08-14T04:58:21.939Z,18.30
2022-08-14T05:01:12.986Z,16.70
2022-08-14T05:03:57.464Z,13.50
2022-08-14T05:06:37.530Z,13.00
2022-08-14T05:09:15.242Z,13.40
2022-08-14T05:11:53.879Z,12.50
2022-08-14T05:14:45.498Z,11.30
2022-08-14T05:17:32.176Z,10.00
2022-08-14T05:21:05.047Z,10.50
2022-08-14T05:23:19.889Z,8.90
2022-08-14T05:26:03.824Z,8.20
2022-08-14T05:28:43.237Z,11.20
2022-08-14T05:31:21.135Z,9.80
2022-08-14T05:33:57.419Z,10.70
2022-08-14T05:36:34.053Z,8.50
2022-08-14T05:39:12.409Z,8.40
2022-08-14T05:41:53.963Z,6.40
2022-08-14T05:44:30.914Z,7.50
2022-08-14T05:47:07.933Z,5.60
2022-08-14T05:49:46.167Z,5.90
2022-08-14T05:52:38.343Z,4.90
2022-08-14T05:55:18.219Z,5.30
2022-08-14T05:58:03.173Z,4.40
2022-08-14T06:00:44.448Z,5.00
2022-08-14T06:03:23.748Z,5.20
2022-08-14T06:06:01.178Z,4.00
2022-08-14T06:08:41.609Z,3.20
2022-08-14T06:11:20.206Z,3.00
2022-08-14T06:14:00.154Z,3.30
2022-08-14T06:16:36.149Z,3.90
2022-08-14T06:19:18.252Z,5.40
2022-08-14T06:21:59.393Z,3.50
2022-08-14T06:24:35.756Z,3.20
2022-08-14T06:27:12.307Z,3.20
2022-08-14T06:29:52.169Z,2.50
2022-08-14T06:32:38.692Z,2.70
2022-08-14T06:35:20.575Z,3.00
2022-08-14T06:40:40.339Z,2.90
2022-08-14T06:43:21.102Z,1.90
2022-08-14T06:46:03.183Z,2.20
2022-08-14T06:48:39.263Z,2.20
2022-08-14T06:51:18.543Z,1.90
2022-08-14T06:53:57.260Z,1.90
2022-08-14T06:56:33.169Z,1.80
2022-08-14T06:59:09.298Z,1.50
2022-08-14T07:02:17.713Z,1.70
2022-08-14T07:05:12.613Z,1.60
2022-08-14T07:07:58.293Z,2.20
2022-08-14T07:10:35.013Z,1.80
2022-08-14T07:13:11.603Z,2.00
2022-08-14T07:15:55.084Z,1.90
2022-08-14T07:18:34.316Z,2.20
2022-08-14T07:21:11.642Z,1.60
2022-08-14T07:23:47.893Z,3.10
2022-08-14T07:26:27.762Z,4.50
2022-08-14T07:29:05.745Z,3.20
2022-08-14T07:31:43.122Z,3.30
2022-08-14T07:34:36.241Z,2.60
2022-08-14T07:37:15.556Z,4.20
2022-08-14T07:39:51.663Z,2.70
2022-08-14T07:42:28.577Z,2.50
2022-08-14T07:45:05.434Z,3.10
2022-08-14T07:47:47.287Z,3.40
2022-08-14T07:50:24.547Z,3.50
2022-08-14T07:53:11.299Z,4.20
2022-08-14T07:56:08.784Z,3.20
2022-08-14T07:58:51.618Z,4.20
2022-08-14T08:01:31.820Z,4.90
2022-08-14T08:04:16.697Z,4.60
2022-08-14T08:07:03.503Z,4.60
2022-08-14T08:09:48.308Z,5.70
2022-08-14T08:12:32.711Z,12.20
2022-08-14T08:15:11.178Z,11.60
2022-08-14T08:17:53.798Z,14.30
2022-08-14T08:20:52.233Z,11.20
2022-08-14T08:23:40.040Z,11.60
2022-08-14T08:26:17.553Z,10.60
2022-08-14T08:29:03.109Z,8.70
2022-08-14T08:31:52.146Z,7.20
2022-08-14T08:34:30.516Z,11.50
2022-08-14T08:37:07.534Z,7.90
2022-08-14T08:40:02.630Z,9.10
2022-08-14T08:42:44.662Z,11.10
2022-08-14T08:45:23.875Z,8.60
2022-08-14T08:48:20.638Z,10.40
2022-08-14T08:50:58.414Z,7.20
2022-08-14T08:53:38.611Z,7.30
2022-08-14T08:56:30.733Z,6.30
2022-08-14T08:59:31.103Z,7.40
2022-08-14T09:02:10.847Z,6.30
2022-08-14T09:04:53.568Z,6.10
2022-08-14T09:07:33.100Z,6.60
2022-08-14T09:10:11.469Z,6.10
2022-08-14T09:12:56.251Z,6.40
2022-08-14T09:15:42.465Z,6.50
2022-08-14T09:18:23.125Z,7.30
2022-08-14T09:21:00.328Z,9.20
2022-08-14T09:24:26.508Z,8.20
2022-08-14T09:26:34.234Z,6.90
2022-08-14T09:29:12.918Z,6.90
2022-08-14T09:31:57.731Z,11.70
2022-08-14T09:34:59.096Z,7.30
2022-08-14T09:37:58.031Z,9.80
2022-08-14T09:40:51.958Z,9.60
2022-08-14T09:43:41.407Z,10.50
2022-08-14T09:46:21.244Z,10.20
2022-08-14T09:49:16.235Z,10.60
2022-08-14T09:51:58.714Z,10.50
2022-08-14T09:54:45.141Z,9.80
2022-08-14T09:57:33.628Z,12.20
2022-08-14T10:00:30.619Z,6.20
2022-08-14T10:03:06.867Z,6.20
2022-08-14T10:05:43.752Z,4.90
2022-08-14T10:08:26.863Z,4.80
2022-08-14T10:11:14.839Z,4.60
2022-08-14T10:13:56.057Z,5.30
2022-08-14T10:16:45.594Z,6.40
2022-08-14T10:19:25.210Z,4.40
2022-08-14T10:23:15.381Z,4.90
2022-08-14T10:25:17.680Z,6.00
2022-08-14T10:28:04.830Z,6.50
2022-08-14T10:30:40.890Z,4.70
2022-08-14T10:33:32.616Z,5.70
2022-08-14T10:36:10.056Z,5.90
2022-08-14T10:39:08.243Z,5.00
2022-08-14T10:41:54.019Z,6.40
2022-08-14T10:44:38.796Z,5.30
2022-08-14T10:47:39.363Z,5.60
2022-08-14T10:50:18.595Z,5.00
2022-08-14T10:53:05.600Z,6.30
2022-08-14T10:55:46.073Z,7.00
2022-08-14T10:58:34.397Z,5.50
2022-08-14T11:01:12.385Z,6.10
2022-08-14T11:06:34.674Z,6.00
2022-08-14T11:09:18.596Z,6.30
2022-08-14T11:12:33.969Z,6.20
2022-08-14T11:15:02.815Z,5.00
2022-08-14T11:17:39.303Z,5.30
2022-08-14T11:20:25.233Z,6.40
2022-08-14T11:23:08.673Z,5.50
2022-08-14T11:25:52.922Z,6.70
2022-08-14T11:28:47.432Z,5.10
2022-08-14T11:31:27.616Z,4.60
2022-08-14T11:34:31.930Z,4.80
2022-08-14T11:37:20.751Z,6.40
2022-08-14T11:40:03.310Z,5.70
2022-08-14T11:42:56.270Z,4.30
2022-08-14T11:45:37.110Z,5.60
2022-08-14T11:49:03.520Z,7.00
2022-08-14T11:51:30.404Z,5.40
2022-08-14T11:54:10.264Z,4.80
2022-08-14T11:59:32.966Z,7.10
2022-08-14T12:03:01.162Z,4.70
2022-08-14T12:05:16.444Z,4.80
2022-08-14T12:07:57.238Z,5.90
2022-08-14T12:10:41.114Z,5.40
2022-08-14T12:13:22.510Z,6.60
2022-08-14T12:16:11.149Z,4.90
2022-08-14T12:19:02.333Z,5.30
2022-08-14T12:21:39.166Z,5.20
2022-08-14T12:24:36.901Z,5.60
2022-08-14T12:27:17.030Z,6.60
2022-08-14T12:30:00.575Z,6.20
2022-08-14T12:32:47.937Z,6.20
2022-08-14T12:35:25.163Z,8.10
2022-08-14T12:38:01.128Z,8.80
2022-08-14T12:40:46.604Z,9.40
2022-08-14T12:43:24.109Z,8.50
2022-08-14T12:46:00.632Z,9.30
2022-08-14T12:48:50.377Z,8.60
2022-08-14T12:51:31.608Z,8.90
2022-08-14T12:54:27.778Z,8.20
2022-08-14T12:57:19.693Z,8.70
2022-08-14T13:02:37.942Z,7.80
2022-08-14T13:05:16.765Z,8.70
2022-08-14T13:07:54.198Z,9.90
2022-08-14T13:10:51.141Z,8.20
2022-08-14T13:13:34.527Z,8.60
2022-08-14T13:16:20.113Z,8.00
2022-08-14T13:19:01.991Z,11.10
2022-08-14T13:24:34.744Z,9.70
2022-08-14T13:27:13.975Z,9.50
2022-08-14T13:29:52.458Z,9.50
2022-08-14T13:32:30.417Z,8.10
2022-08-14T13:35:12.089Z,9.30
2022-08-14T13:37:54.124Z,10.80
2022-08-14T13:40:30.491Z,10.00
2022-08-14T13:43:08.937Z,8.70
2022-08-14T13:46:00.573Z,9.40
2022-08-14T13:48:38.248Z,9.10
2022-08-14T13:51:17.713Z,8.70
2022-08-14T13:54:10.207Z,8.80
2022-08-14T13:56:49.089Z,9.70
2022-08-14T13:59:37.833Z,8.30
2022-08-14T14:02:33.767Z,9.00
2022-08-14T14:05:15.046Z,10.30
2022-08-14T14:07:56.111Z,10.50
2022-08-14T14:10:36.810Z,9.80
2022-08-14T14:13:20.258Z,9.10
2022-08-14T14:15:58.484Z,11.30
2022-08-14T14:18:42.495Z,9.50
2022-08-14T14:21:23.941Z,9.20
2022-08-14T14:26:36.300Z,10.40
2022-08-14T14:29:14.966Z,10.10
2022-08-14T14:31:55.035Z,9.10
2022-08-14T14:34:37.849Z,12.30
2022-08-14T14:37:16.568Z,9.70
2022-08-14T14:40:52.865Z,10.30
2022-08-14T14:42:55.669Z,10.60
2022-08-14T14:45:33.020Z,11.30
2022-08-14T14:48:12.708Z,10.00
2022-08-14T14:50:54.182Z,10.00
2022-08-14T14:53:38.701Z,10.40
2022-08-14T14:56:50.686Z,12.00
2022-08-14T14:59:15.329Z,10.80
2022-08-14T15:02:00.784Z,11.40
2022-08-14T15:04:38.465Z,10.60
2022-08-14T15:07:16.945Z,9.20
2022-08-14T15:09:52.973Z,11.50
2022-08-14T15:12:55.359Z,10.70
2022-08-14T15:15:25.452Z,9.80
2022-08-14T15:18:01.818Z,10.10
2022-08-14T15:20:41.047Z,11.80
2022-08-14T15:23:18.650Z,10.20
2022-08-14T15:25:59.348Z,10.10
2022-08-14T15:28:38.669Z,10.00
2022-08-14T15:31:15.174Z,10.50
2022-08-14T15:34:44.468Z,11.00
2022-08-14T15:37:06.521Z,10.00
2022-08-14T15:39:49.279Z,12.30
2022-08-14T15:45:03.688Z,9.60
2022-08-14T15:47:41.543Z,11.70
2022-08-14T15:50:19.523Z,10.40
2022-08-14T15:52:55.975Z,10.80
2022-08-14T15:55:32.279Z,10.40
2022-08-14T15:58:14.428Z,11.50
2022-08-14T16:01:50.600Z,11.60
2022-08-14T16:04:24.066Z,10.70
2022-08-14T16:07:00.796Z,13.20
2022-08-14T16:09:36.940Z,12.10
2022-08-14T16:12:15.202Z,11.60
2022-08-14T16:14:56.438Z,12.60
2022-08-14T16:17:33.359Z,12.40
2022-08-14T16:20:12.750Z,12.20
2022-08-14T16:23:12.247Z,12.10
2022-08-14T16:25:52.601Z,12.20
2022-08-14T16:28:29.188Z,11.90
2022-08-14T16:31:05.903Z,14.20
2022-08-14T16:33:59.772Z,13.90
2022-08-14T16:36:38.989Z,12.00
2022-08-14T16:39:28.630Z,14.10
2022-08-14T16:42:38.265Z,12.00
2022-08-14T16:45:02.707Z,12.00
2022-08-14T16:47:39.795Z,13.20
2022-08-14T16:50:40.141Z,11.70
2022-08-14T16:53:17.211Z,12.00
2022-08-14T16:56:23.190Z,13.40
2022-08-14T16:59:15.929Z,12.30
2022-08-14T17:02:05.199Z,12.20
2022-08-14T17:04:42.980Z,14.50
2022-08-14T17:07:25.795Z,13.10
2022-08-14T17:10:12.392Z,13.70
2022-08-14T17:12:48.643Z,13.80
2022-08-14T17:15:26.169Z,14.60
2022-08-14T17:18:02.780Z,14.70
2022-08-14T17:21:01.771Z,13.80
2022-08-14T17:23:41.024Z,15.00
2022-08-14T17:26:40.877Z,16.30
2022-08-14T17:29:23.338Z,14.60
2022-08-14T17:32:28.589Z,13.80
2022-08-14T17:35:17.410Z,13.90
2022-08-14T17:37:55.820Z,13.80
2022-08-14T17:40:35.531Z,16.30
2022-08-14T17:43:13.310Z,15.00
2022-08-14T17:45:51.099Z,14.90
2022-08-14T17:49:15.749Z,14.20
2022-08-14T17:54:08.412Z,16.70
2022-08-14T17:56:45.950Z,15.30
2022-08-14T17:59:24.132Z,17.00
2022-08-14T18:02:01.484Z,15.60
2022-08-14T18:04:41.332Z,14.60
2022-08-14T18:08:00.481Z,16.30
2022-08-14T18:10:52.322Z,15.20
2022-08-14T18:13:17.256Z,18.50
2022-08-14T18:15:56.003Z,15.90
2022-08-14T18:18:32.384Z,15.60
2022-08-14T18:21:42.736Z,17.40
2022-08-14T18:24:20.043Z,27.50
2022-08-14T18:27:09.139Z,35.50
2022-08-14T18:29:54.522Z,20.00
2022-08-14T18:32:55.135Z,20.10
2022-08-14T18:35:59.968Z,19.20
2022-08-14T18:38:55.120Z,20.10
2022-08-14T18:41:38.053Z,21.20
2022-08-14T18:44:14.923Z,19.10
2022-08-14T18:47:32.639Z,21.30
2022-08-14T18:50:31.302Z,19.70
2022-08-14T18:53:12.969Z,24.10
2022-08-14T18:56:02.016Z,18.60
2022-08-14T18:58:57.049Z,21.70
2022-08-14T19:01:35.577Z,21.40
2022-08-14T19:04:38.545Z,20.70
2022-08-14T19:07:25.109Z,19.60
2022-08-14T19:10:06.856Z,19.40
2022-08-14T19:13:11.981Z,19.50
2022-08-14T19:16:04.736Z,21.50
2022-08-14T19:18:53.784Z,21.90
2022-08-14T19:21:42.518Z,22.00
2022-08-14T19:24:29.198Z,23.20
2022-08-14T19:27:26.375Z,23.20
2022-08-14T19:30:32.092Z,21.70
2022-08-14T19:33:46.487Z,24.90
2022-08-14T19:36:29.074Z,24.60
2022-08-14T19:39:08.013Z,24.70
2022-08-14T19:41:51.996Z,24.20
2022-08-14T19:44:36.386Z,21.80
2022-08-14T19:47:13.592Z,22.80
2022-08-14T19:50:24.593Z,24.00
2022-08-14T19:52:49.285Z,24.00
2022-08-14T19:55:34.178Z,23.60
2022-08-14T19:58:12.415Z,25.10
2022-08-14T20:00:59.699Z,25.60
2022-08-14T20:03:59.856Z,21.20
2022-08-14T20:06:46.639Z,20.60
2022-08-14T20:11:05.756Z,19.90
2022-08-14T20:12:28.889Z,27.70
2022-08-14T20:15:17.916Z,20.20
2022-08-14T20:17:57.653Z,19.00
2022-08-14T20:20:39.027Z,19.30
2022-08-14T20:23:20.332Z,18.90
2022-08-14T20:25:58.628Z,21.30
2022-08-14T20:28:51.427Z,16.70
2022-08-14T20:31:37.290Z,21.00
2022-08-14T20:34:25.173Z,21.00
2022-08-14T20:37:22.074Z,17.90
2022-08-14T20:39:58.981Z,17.40
2022-08-14T20:42:56.540Z,18.90
2022-08-14T20:45:42.018Z,16.90
2022-08-14T20:48:53.204Z,17.90
2022-08-14T20:51:36.501Z,18.10
2022-08-14T20:54:16.126Z,17.00
2022-08-14T20:56:53.682Z,18.30
2022-08-14T20:59:32.224Z,17.30
2022-08-14T21:02:49.762Z,17.50
2022-08-14T21:05:33.755Z,17.20
2022-08-14T21:08:22.298Z,18.20
2022-08-14T21:11:01.091Z,16.30
2022-08-14T21:14:24.875Z,17.60
2022-08-14T21:16:41.001Z,16.10
2022-08-14T21:19:32.032Z,17.60
2022-08-14T21:22:12.435Z,17.80
2022-08-14T21:24:49.913Z,23.40
2022-08-14T21:27:39.978Z,18.90
2022-08-14T21:30:41.867Z,16.30
2022-08-14T21:33:29.817Z,18.60
2022-08-14T21:36:12.482Z,21.00
2022-08-14T21:38:59.105Z,19.50
2022-08-14T21:41:43.189Z,18.40
2022-08-14T21:44:43.086Z,21.90
2022-08-14T21:47:23.602Z,18.00
2022-08-14T21:49:59.713Z,18.30
2022-08-14T21:52:51.489Z,16.70
2022-08-14T21:55:34.094Z,17.90
2022-08-14T21:58:53.373Z,18.30
2022-08-14T22:01:10.705Z,16.80
2022-08-14T22:03:54.612Z,18.20
2022-08-14T22:06:31.695Z,19.40
2022-08-14T22:09:09.829Z,17.00
2022-08-14T22:11:46.295Z,15.80
2022-08-14T22:14:32.073Z,16.30
2022-08-14T22:17:13.172Z,15.20
2022-08-14T22:19:54.941Z,15.40
2022-08-14T22:22:32.912Z,15.40
2022-08-14T22:25:17.302Z,14.90
2022-08-14T22:27:56.221Z,16.40
2022-08-14T22:30:32.740Z,14.90
2022-08-14T22:33:13.267Z,15.80
2022-08-14T22:35:49.953Z,17.90
2022-08-14T22:38:36.100Z,19.40
2022-08-14T22:44:15.065Z,15.20
2022-08-14T22:46:52.711Z,16.40
2022-08-14T22:50:31.744Z,15.50
2022-08-14T22:52:32.402Z,13.90
2022-08-14T22:55:14.174Z,15.00
2022-08-14T23:00:31.470Z,14.50
2022-08-14T23:03:17.263Z,16.00
2022-08-14T23:05:54.685Z,15.00
2022-08-14T23:08:57.942Z,16.20
2022-08-14T23:11:27.258Z,17.90
2022-08-14T23:14:05.736Z,18.30
2022-08-14T23:16:51.616Z,15.30
2022-08-14T23:19:34.811Z,15.80
2022-08-14T23:22:11.905Z,16.70
2022-08-14T23:24:53.250Z,15.40
2022-08-14T23:28:02.962Z,14.50
2022-08-14T23:30:33.915Z,15.70
2022-08-14T23:33:16.841Z,14.70
2022-08-14T23:35:58.741Z,15.90
2022-08-14T23:38:36.047Z,17.00
2022-08-14T23:41:14.722Z,14.60
2022-08-14T23:43:57.172Z,14.50
2022-08-14T23:46:35.044Z,14.60
2022-08-14T23:49:12.416Z,15.40
2022-08-14T23:52:51.507Z,15.20
2022-08-14T23:54:48.392Z,16.60
2022-08-14T23:57:25.626Z,15.50
